createdAt,value
2022-11-20T00:01:34.414Z,4.71
2022-11-20T00:04:02.606Z,4.72
2022-11-20T00:06:31.125Z,4.73
2022-11-20T00:09:02.402Z,4.69
2022-11-20T00:11:31.960Z,4.66
2022-11-20T00:14:02.311Z,4.66
2022-11-20T00:16:33.398Z,4.66
2022-11-20T00:19:01.710Z,4.66
2022-11-20T00:21:30.145Z,4.62
2022-11-20T00:23:58.949Z,4.65
2022-11-20T00:26:28.275Z,4.66
2022-11-20T00:29:02.438Z,4.65
2022-11-20T00:31:32.016Z,4.67
2022-11-20T00:34:00.090Z,4.70
2022-11-20T00:36:30.159Z,4.71
2022-11-20T00:38:59.641Z,4.71
2022-11-20T00:41:29.955Z,4.74
2022-11-20T00:43:58.101Z,4.73
2022-11-20T00:46:28.686Z,4.77
2022-11-20T00:48:57.286Z,4.80
2022-11-20T00:51:27.191Z,4.84
2022-11-20T00:54:01.231Z,4.91
2022-11-20T00:56:29.753Z,4.96
2022-11-20T00:59:01.217Z,4.95
2022-11-20T01:01:32.769Z,4.97
2022-11-20T01:04:01.805Z,5.02
2022-11-20T01:06:33.024Z,5.08
2022-11-20T01:09:04.412Z,5.10
2022-11-20T01:11:36.037Z,5.11
2022-11-20T01:14:06.965Z,5.10
2022-11-20T01:16:38.687Z,5.03
2022-11-20T01:19:12.894Z,4.97
2022-11-20T01:21:44.680Z,4.96
2022-11-20T01:24:15.522Z,4.93
2022-11-20T01:26:45.268Z,4.90
2022-11-20T01:29:22.309Z,4.89
2022-11-20T01:31:51.102Z,4.87
2022-11-20T01:34:21.344Z,4.84
2022-11-20T01:36:51.253Z,4.84
2022-11-20T01:39:22.756Z,4.85
2022-11-20T01:42:11.827Z,4.83
2022-11-20T01:44:52.278Z,4.83
2022-11-20T01:47:31.268Z,4.78
2022-11-20T01:50:14.796Z,4.74
2022-11-20T01:52:50.713Z,4.73
2022-11-20T01:55:22.822Z,4.73
2022-11-20T01:57:51.983Z,4.73
2022-11-20T02:00:21.682Z,4.74
2022-11-20T02:02:55.430Z,4.74
2022-11-20T02:06:01.490Z,4.76
2022-11-20T02:08:29.701Z,4.84
2022-11-20T02:10:58.119Z,4.92
2022-11-20T02:13:44.327Z,4.98
2022-11-20T02:16:22.378Z,4.99
2022-11-20T02:18:51.986Z,5.05
2022-11-20T02:21:26.701Z,5.04
2022-11-20T02:24:08.003Z,5.02
2022-11-20T02:27:01.141Z,4.99
2022-11-20T02:29:35.594Z,4.93
2022-11-20T02:32:03.992Z,4.93
2022-11-20T02:34:32.474Z,4.95
2022-11-20T02:37:01.256Z,4.98
2022-11-20T02:39:29.599Z,5.02
2022-11-20T02:41:58.309Z,4.99
2022-11-20T02:44:26.449Z,5.02
2022-11-20T02:46:54.480Z,5.06
2022-11-20T02:49:22.615Z,5.11
2022-11-20T02:51:50.851Z,5.17
2022-11-20T02:54:18.974Z,5.21
2022-11-20T02:56:46.941Z,5.23
2022-11-20T02:59:14.902Z,5.27
2022-11-20T03:01:42.903Z,5.28
2022-11-20T03:04:11.050Z,5.28
2022-11-20T03:06:39.067Z,5.23
2022-11-20T03:09:07.340Z,5.21
2022-11-20T03:11:35.297Z,5.25
2022-11-20T03:14:05.750Z,5.26
2022-11-20T03:16:34.001Z,5.29
2022-11-20T03:19:01.938Z,5.35
2022-11-20T03:21:29.939Z,5.41
2022-11-20T03:23:57.963Z,5.46
2022-11-20T03:26:28.440Z,5.46
2022-11-20T03:28:58.959Z,5.49
2022-11-20T03:31:35.563Z,5.52
2022-11-20T03:34:05.219Z,5.52
2022-11-20T03:36:33.744Z,5.47
2022-11-20T03:39:02.067Z,5.43
2022-11-20T03:41:32.456Z,5.46
2022-11-20T03:44:03.201Z,5.40
2022-11-20T03:46:31.990Z,5.31
2022-11-20T03:49:00.225Z,5.30
2022-11-20T03:51:33.747Z,5.33
2022-11-20T03:54:07.482Z,5.35
2022-11-20T03:56:38.502Z,5.35
2022-11-20T03:59:07.183Z,5.33
2022-11-20T04:01:38.482Z,5.33
2022-11-20T04:04:06.777Z,5.29
2022-11-20T04:06:37.644Z,5.23
2022-11-20T04:09:06.922Z,5.19
2022-11-20T04:11:38.482Z,5.19
2022-11-20T04:14:13.636Z,5.14
2022-11-20T04:16:41.982Z,5.14
2022-11-20T04:19:16.027Z,5.12
2022-11-20T04:21:45.400Z,5.09
2022-11-20T04:24:13.795Z,5.11
2022-11-20T04:26:41.965Z,5.12
2022-11-20T04:29:12.750Z,5.12
2022-11-20T04:31:41.005Z,5.15
2022-11-20T04:34:09.156Z,5.16
2022-11-20T04:36:37.340Z,5.15
2022-11-20T04:39:07.423Z,5.14
2022-11-20T04:41:37.362Z,5.12
2022-11-20T04:44:06.951Z,5.12
2022-11-20T04:46:41.451Z,5.13
2022-11-20T04:49:09.961Z,5.14
2022-11-20T04:51:38.443Z,5.16
2022-11-20T04:54:06.807Z,5.13
2022-11-20T04:56:35.112Z,5.07
2022-11-20T04:59:03.954Z,5.10
2022-11-20T05:01:33.799Z,5.13
2022-11-20T05:04:02.065Z,5.13
2022-11-20T05:06:30.207Z,5.11
2022-11-20T05:08:58.477Z,5.12
2022-11-20T05:11:26.762Z,5.15
2022-11-20T05:13:54.825Z,5.13
2022-11-20T05:16:25.328Z,5.13
2022-11-20T05:18:55.791Z,5.13
2022-11-20T05:21:24.091Z,5.14
2022-11-20T05:23:52.115Z,5.16
2022-11-20T05:26:22.740Z,5.19
2022-11-20T05:28:52.121Z,5.19
2022-11-20T05:31:27.278Z,5.21
2022-11-20T05:33:57.988Z,5.20
2022-11-20T05:36:26.365Z,5.20
2022-11-20T05:38:59.786Z,5.16
2022-11-20T05:41:30.298Z,5.15
2022-11-20T05:43:59.932Z,5.14
2022-11-20T05:46:29.305Z,5.13
2022-11-20T05:48:58.672Z,5.13
2022-11-20T05:51:27.412Z,5.11
2022-11-20T05:53:59.382Z,5.05
2022-11-20T05:56:27.559Z,5.04
2022-11-20T05:58:55.710Z,5.04
2022-11-20T06:01:26.519Z,5.07
2022-11-20T06:03:55.431Z,5.12
2022-11-20T06:06:24.069Z,5.17
2022-11-20T06:08:52.339Z,5.20
2022-11-20T06:11:20.428Z,5.23
2022-11-20T06:13:49.619Z,5.25
2022-11-20T06:16:19.935Z,5.28
2022-11-20T06:18:48.525Z,5.32
2022-11-20T06:21:19.700Z,5.35
2022-11-20T06:23:48.568Z,5.39
2022-11-20T06:26:20.779Z,5.43
2022-11-20T06:28:49.553Z,5.47
2022-11-20T06:31:19.978Z,5.50
2022-11-20T06:33:49.239Z,5.53
2022-11-20T06:36:19.626Z,5.56
2022-11-20T06:38:48.674Z,5.60
2022-11-20T06:41:19.318Z,5.62
2022-11-20T06:43:47.533Z,5.62
2022-11-20T06:46:18.678Z,5.62
2022-11-20T06:48:47.701Z,5.58
2022-11-20T06:51:16.505Z,5.59
2022-11-20T06:53:44.836Z,5.61
2022-11-20T06:56:12.886Z,5.61
2022-11-20T06:58:40.896Z,5.60
2022-11-20T07:01:12.190Z,5.55
2022-11-20T07:03:41.559Z,5.56
2022-11-20T07:06:10.465Z,5.57
2022-11-20T07:08:39.158Z,5.53
2022-11-20T07:11:08.484Z,5.46
2022-11-20T07:13:36.756Z,5.50
2022-11-20T07:16:07.691Z,5.54
2022-11-20T07:18:36.558Z,5.59
2022-11-20T07:21:06.773Z,5.67
2022-11-20T07:23:35.639Z,5.73
2022-11-20T07:26:05.480Z,5.71
2022-11-20T07:28:34.566Z,5.72
2022-11-20T07:31:03.382Z,5.82
2022-11-20T07:33:32.266Z,5.87
2022-11-20T07:36:01.423Z,5.88
2022-11-20T07:38:29.942Z,5.87
2022-11-20T07:40:59.085Z,5.85
2022-11-20T07:43:27.002Z,5.92
2022-11-20T07:45:59.623Z,5.97
2022-11-20T07:48:27.822Z,6.09
2022-11-20T07:50:57.154Z,6.16
2022-11-20T07:53:25.671Z,6.16
2022-11-20T07:55:53.769Z,6.20
2022-11-20T07:58:22.463Z,6.28
2022-11-20T08:00:50.846Z,6.31
2022-11-20T08:03:24.340Z,6.35
2022-11-20T08:05:52.913Z,6.37
2022-11-20T08:08:22.711Z,6.35
2022-11-20T08:10:51.040Z,6.37
2022-11-20T08:13:37.774Z,6.37
2022-11-20T08:16:06.029Z,6.35
2022-11-20T08:18:33.969Z,6.37
2022-11-20T08:21:05.287Z,6.34
2022-11-20T08:23:33.143Z,6.37
2022-11-20T08:26:01.325Z,6.40
2022-11-20T08:28:29.505Z,6.34
2022-11-20T08:31:02.165Z,6.31
2022-11-20T08:33:30.982Z,6.30
2022-11-20T08:36:05.940Z,6.27
2022-11-20T08:38:34.131Z,6.30
2022-11-20T08:41:23.379Z,6.35
2022-11-20T08:44:02.956Z,6.37
2022-11-20T08:46:39.443Z,6.39
2022-11-20T08:49:09.722Z,6.44
2022-11-20T08:51:39.163Z,6.44
2022-11-20T08:54:07.702Z,6.44
2022-11-20T08:56:36.145Z,6.49
2022-11-20T09:01:52.701Z,6.54
2022-11-20T09:04:21.096Z,6.59
2022-11-20T09:06:52.156Z,6.58
2022-11-20T09:09:20.969Z,6.60
2022-11-20T09:11:51.047Z,6.64
2022-11-20T09:14:19.163Z,6.60
2022-11-20T09:16:47.826Z,6.65
2022-11-20T09:22:04.464Z,6.65
2022-11-20T09:24:32.874Z,6.61
2022-11-20T09:27:03.504Z,6.59
2022-11-20T09:29:31.636Z,6.65
2022-11-20T09:31:59.779Z,6.70
2022-11-20T09:34:27.994Z,6.75
2022-11-20T09:36:56.010Z,6.77
2022-11-20T09:39:24.497Z,6.79
2022-11-20T09:42:05.521Z,6.84
2022-11-20T09:44:47.259Z,6.83
2022-11-20T09:47:32.121Z,6.75
2022-11-20T09:50:30.719Z,6.84
2022-11-20T09:53:13.699Z,6.87
2022-11-20T09:55:41.891Z,6.92
2022-11-20T09:58:36.864Z,7.00
2022-11-20T10:01:16.403Z,7.09
2022-11-20T10:03:50.438Z,7.19
2022-11-20T10:06:25.406Z,7.26
2022-11-20T10:09:06.169Z,7.24
2022-11-20T10:11:57.353Z,7.35
2022-11-20T10:14:52.345Z,7.40
2022-11-20T10:17:42.773Z,7.51
2022-11-20T10:20:40.191Z,7.59
2022-11-20T10:23:32.537Z,7.59
2022-11-20T10:26:14.742Z,7.59
2022-11-20T10:29:08.627Z,7.61
2022-11-20T10:31:48.116Z,7.66
2022-11-20T10:34:25.153Z,7.67
2022-11-20T10:37:11.107Z,7.68
2022-11-20T10:39:58.087Z,7.68
2022-11-20T10:42:52.284Z,7.68
2022-11-20T10:45:34.620Z,7.64
2022-11-20T10:48:16.507Z,7.62
2022-11-20T10:51:24.445Z,7.61
2022-11-20T10:54:11.050Z,7.63
2022-11-20T10:56:52.484Z,7.64
2022-11-20T10:59:29.866Z,7.65
2022-11-20T11:02:01.500Z,7.68
2022-11-20T11:04:41.992Z,7.63
2022-11-20T11:07:16.727Z,7.55
2022-11-20T11:09:52.062Z,7.56
2022-11-20T11:12:21.191Z,7.58
2022-11-20T11:14:53.104Z,7.59
2022-11-20T11:17:22.377Z,7.72
2022-11-20T11:20:12.357Z,7.80
2022-11-20T11:22:51.325Z,7.90
2022-11-20T11:25:26.224Z,7.86
2022-11-20T11:27:57.471Z,7.81
2022-11-20T11:30:28.866Z,7.83
2022-11-20T11:33:06.531Z,7.89
2022-11-20T11:35:35.024Z,7.89
2022-11-20T11:38:07.090Z,7.84
2022-11-20T11:40:39.395Z,7.78
2022-11-20T11:43:39.330Z,7.88
2022-11-20T11:46:31.888Z,8.01
2022-11-20T11:49:03.013Z,7.88
2022-11-20T11:51:38.705Z,7.76
2022-11-20T11:54:15.731Z,7.88
2022-11-20T11:56:45.004Z,7.95
2022-11-20T11:59:25.735Z,7.98
2022-11-20T12:02:03.154Z,8.04
2022-11-20T12:04:46.087Z,8.04
2022-11-20T12:07:46.474Z,8.08
2022-11-20T12:10:36.217Z,8.06
2022-11-20T12:13:27.360Z,7.86
2022-11-20T12:15:55.974Z,7.78
2022-11-20T12:18:24.172Z,7.66
2022-11-20T12:21:13.379Z,7.52
2022-11-20T12:23:49.949Z,7.42
2022-11-20T12:26:56.429Z,7.37
2022-11-20T12:29:46.332Z,7.43
2022-11-20T12:32:17.244Z,7.41
2022-11-20T12:35:07.240Z,7.37
2022-11-20T12:37:41.288Z,7.32
2022-11-20T12:40:34.132Z,7.33
2022-11-20T12:43:39.078Z,7.31
2022-11-20T12:46:19.639Z,7.40
2022-11-20T12:48:59.673Z,7.52
2022-11-20T12:51:36.187Z,7.56
2022-11-20T12:54:23.335Z,7.62
2022-11-20T12:57:03.778Z,7.64
2022-11-20T12:59:47.845Z,7.65
2022-11-20T13:02:54.057Z,7.58
2022-11-20T13:06:11.753Z,7.46
2022-11-20T13:08:43.240Z,7.46
2022-11-20T13:11:31.798Z,7.49
2022-11-20T13:14:09.447Z,7.55
2022-11-20T13:17:19.423Z,7.51
2022-11-20T13:19:53.610Z,7.50
2022-11-20T13:22:30.102Z,7.47
2022-11-20T13:24:58.549Z,7.50
2022-11-20T13:27:27.043Z,7.49
2022-11-20T13:30:15.570Z,7.49
2022-11-20T13:33:31.799Z,7.43
2022-11-20T13:36:03.487Z,7.39
2022-11-20T13:38:49.923Z,7.39
2022-11-20T13:41:35.061Z,7.40
2022-11-20T13:44:45.035Z,7.44
2022-11-20T13:47:48.379Z,7.49
2022-11-20T13:50:17.139Z,7.50
2022-11-20T13:53:24.462Z,7.55
2022-11-20T13:56:21.209Z,7.56
2022-11-20T13:59:05.345Z,7.58
2022-11-20T14:01:34.191Z,7.55
2022-11-20T14:04:10.310Z,7.50
2022-11-20T14:06:49.869Z,7.50
2022-11-20T14:09:30.613Z,7.39
2022-11-20T14:12:00.179Z,7.44
2022-11-20T14:14:30.033Z,7.40
2022-11-20T14:17:20.532Z,7.40
2022-11-20T14:19:51.629Z,7.42
2022-11-20T14:22:25.680Z,7.44
2022-11-20T14:25:15.496Z,7.41
2022-11-20T14:27:49.463Z,7.39
2022-11-20T14:30:21.233Z,7.41
2022-11-20T14:32:50.698Z,7.36
2022-11-20T14:35:31.119Z,7.36
2022-11-20T14:37:59.541Z,7.37
2022-11-20T14:40:32.409Z,7.37
2022-11-20T14:43:00.783Z,7.28
2022-11-20T14:45:29.172Z,7.29
2022-11-20T14:47:59.195Z,7.29
2022-11-20T14:50:29.928Z,7.28
2022-11-20T14:53:00.971Z,7.27
2022-11-20T14:55:42.150Z,7.25
2022-11-20T14:58:34.467Z,7.24
2022-11-20T15:01:05.850Z,7.22
2022-11-20T15:03:40.343Z,7.21
2022-11-20T15:06:13.211Z,7.21
2022-11-20T15:08:52.830Z,7.18
2022-11-20T15:11:32.194Z,7.16
2022-11-20T15:14:05.876Z,7.13
2022-11-20T15:16:34.760Z,7.13
2022-11-20T15:19:05.098Z,7.12
2022-11-20T15:21:33.363Z,7.12
2022-11-20T15:24:02.051Z,7.09
2022-11-20T15:26:30.669Z,7.10
2022-11-20T15:28:59.032Z,7.12
2022-11-20T15:31:27.200Z,7.09
2022-11-20T15:33:55.511Z,7.08
2022-11-20T15:36:23.591Z,7.06
2022-11-20T15:38:51.686Z,7.03
2022-11-20T15:41:20.029Z,6.99
2022-11-20T15:43:49.530Z,6.95
2022-11-20T15:46:24.667Z,6.95
2022-11-20T15:48:56.588Z,6.93
2022-11-20T15:51:30.784Z,6.93
2022-11-20T15:53:59.771Z,6.94
2022-11-20T15:56:28.208Z,6.95
2022-11-20T15:58:56.649Z,6.93
2022-11-20T16:01:25.371Z,6.92
2022-11-20T16:03:57.874Z,6.89
2022-11-20T16:06:25.976Z,6.88
2022-11-20T16:08:54.248Z,6.88
2022-11-20T16:11:22.704Z,6.85
2022-11-20T16:14:09.347Z,6.80
2022-11-20T16:16:40.404Z,6.79
2022-11-20T16:19:16.820Z,6.77
2022-11-20T16:21:45.383Z,6.75
2022-11-20T16:24:15.938Z,6.77
2022-11-20T16:26:44.581Z,6.80
2022-11-20T16:29:13.034Z,6.81
2022-11-20T16:31:41.428Z,6.81
2022-11-20T16:34:12.654Z,6.84
2022-11-20T16:36:43.278Z,6.85
2022-11-20T16:39:13.401Z,6.88
2022-11-20T16:41:41.853Z,6.88
2022-11-20T16:44:11.813Z,6.89
2022-11-20T16:46:41.174Z,6.91
2022-11-20T16:49:14.720Z,6.92
2022-11-20T16:51:43.420Z,6.87
2022-11-20T16:54:16.512Z,6.90
2022-11-20T16:56:48.570Z,6.94
2022-11-20T16:59:17.037Z,6.97
2022-11-20T17:01:45.477Z,6.90
2022-11-20T17:04:13.913Z,6.92
2022-11-20T17:06:48.485Z,6.94
2022-11-20T17:09:16.989Z,6.96
2022-11-20T17:11:45.297Z,6.98
2022-11-20T17:14:13.781Z,7.00
2022-11-20T17:16:44.290Z,7.01
2022-11-20T17:19:15.751Z,7.00
2022-11-20T17:21:44.040Z,7.00
2022-11-20T17:24:14.016Z,7.00
2022-11-20T17:26:43.765Z,7.00
2022-11-20T17:29:15.204Z,6.94
2022-11-20T17:31:44.980Z,6.89
2022-11-20T17:34:15.356Z,6.86
2022-11-20T17:36:46.999Z,6.88
2022-11-20T17:39:18.293Z,6.88
2022-11-20T17:42:08.518Z,6.89
2022-11-20T17:44:37.750Z,6.89
2022-11-20T17:47:05.859Z,6.91
2022-11-20T17:49:34.304Z,6.89
2022-11-20T17:52:02.457Z,6.89
2022-11-20T17:54:30.789Z,6.90
2022-11-20T17:57:17.535Z,6.89
2022-11-20T17:59:45.718Z,6.89
2022-11-20T18:02:14.402Z,6.88
2022-11-20T18:04:42.772Z,6.83
2022-11-20T18:07:10.829Z,6.82
2022-11-20T18:09:39.143Z,6.84
2022-11-20T18:12:07.419Z,6.86
2022-11-20T18:14:36.686Z,6.88
2022-11-20T18:17:08.053Z,6.88
2022-11-20T18:19:44.859Z,6.84
2022-11-20T18:22:20.577Z,6.82
2022-11-20T18:24:49.883Z,6.81
2022-11-20T18:27:21.149Z,6.72
2022-11-20T18:29:52.186Z,6.70
2022-11-20T18:32:22.886Z,6.71
2022-11-20T18:34:51.556Z,6.72
2022-11-20T18:37:20.112Z,6.71
2022-11-20T18:39:50.605Z,6.70
2022-11-20T18:42:37.516Z,6.65
2022-11-20T18:45:06.525Z,6.63
2022-11-20T18:47:38.108Z,6.61
2022-11-20T18:50:08.749Z,6.58
2022-11-20T18:52:44.866Z,6.49
2022-11-20T18:55:13.397Z,6.49
2022-11-20T18:57:41.486Z,6.51
2022-11-20T19:00:10.505Z,6.50
2022-11-20T19:02:42.660Z,6.53
2022-11-20T19:05:13.886Z,6.52
2022-11-20T19:07:42.804Z,6.53
2022-11-20T19:10:11.232Z,6.54
2022-11-20T19:12:39.126Z,6.55
2022-11-20T19:15:07.588Z,6.54
2022-11-20T19:17:35.883Z,6.52
2022-11-20T19:20:04.692Z,6.52
2022-11-20T19:22:33.130Z,6.53
2022-11-20T19:25:01.642Z,6.56
2022-11-20T19:27:30.282Z,6.54
2022-11-20T19:30:03.393Z,6.60
2022-11-20T19:32:33.565Z,6.61
2022-11-20T19:35:03.770Z,6.63
2022-11-20T19:37:34.251Z,6.64
2022-11-20T19:40:05.191Z,6.64
2022-11-20T19:42:33.265Z,6.62
2022-11-20T19:45:01.485Z,6.64
2022-11-20T19:47:52.621Z,6.66
2022-11-20T19:50:18.151Z,6.67
2022-11-20T19:52:46.944Z,6.70
2022-11-20T19:55:15.627Z,6.70
2022-11-20T19:57:43.779Z,6.71
2022-11-20T20:00:16.796Z,6.74
2022-11-20T20:02:48.413Z,6.72
2022-11-20T20:05:16.755Z,6.71
2022-11-20T20:07:45.045Z,6.61
2022-11-20T20:10:14.823Z,6.54
2022-11-20T20:12:42.937Z,6.58
2022-11-20T20:15:11.451Z,6.55
2022-11-20T20:17:39.544Z,6.51
2022-11-20T20:20:08.086Z,6.48
2022-11-20T20:22:36.168Z,6.48
2022-11-20T20:25:04.800Z,6.48
2022-11-20T20:27:32.926Z,6.50
2022-11-20T20:30:01.073Z,6.44
2022-11-20T20:32:31.598Z,6.44
2022-11-20T20:34:59.585Z,6.46
2022-11-20T20:37:27.915Z,6.46
2022-11-20T20:39:57.836Z,6.43
2022-11-20T20:42:26.240Z,6.41
2022-11-20T20:45:06.415Z,6.40
2022-11-20T20:47:38.989Z,6.38
2022-11-20T20:50:10.175Z,6.40
2022-11-20T20:52:38.186Z,6.40
2022-11-20T20:55:06.737Z,6.40
2022-11-20T20:57:35.070Z,6.38
2022-11-20T21:00:05.794Z,6.36
2022-11-20T21:02:33.749Z,6.39
2022-11-20T21:05:01.917Z,6.38
2022-11-20T21:07:29.865Z,6.34
2022-11-20T21:09:58.019Z,6.28
2022-11-20T21:12:26.065Z,6.23
2022-11-20T21:14:54.186Z,6.27
2022-11-20T21:17:22.160Z,6.32
2022-11-20T21:19:50.125Z,6.36
2022-11-20T21:22:18.273Z,6.38
2022-11-20T21:24:46.658Z,6.37
2022-11-20T21:27:14.671Z,6.34
2022-11-20T21:29:42.667Z,6.25
2022-11-20T21:32:10.703Z,6.15
2022-11-20T21:34:39.936Z,6.18
2022-11-20T21:37:08.683Z,6.20
2022-11-20T21:39:50.991Z,6.24
2022-11-20T21:42:19.494Z,6.27
2022-11-20T21:44:48.001Z,6.29
2022-11-20T21:47:15.896Z,6.32
2022-11-20T21:49:43.947Z,6.34
2022-11-20T21:52:12.796Z,6.35
2022-11-20T21:54:40.830Z,6.35
2022-11-20T21:57:08.749Z,6.32
2022-11-20T21:59:37.564Z,6.32
2022-11-20T22:02:05.605Z,6.34
2022-11-20T22:04:33.708Z,6.37
2022-11-20T22:07:01.616Z,6.35
2022-11-20T22:09:29.625Z,6.36
2022-11-20T22:11:57.695Z,6.34
2022-11-20T22:14:26.103Z,6.31
2022-11-20T22:16:54.555Z,6.29
2022-11-20T22:19:23.451Z,6.25
2022-11-20T22:21:51.643Z,6.25
2022-11-20T22:24:22.011Z,6.28
2022-11-20T22:26:50.491Z,6.26
2022-11-20T22:29:23.362Z,6.27
2022-11-20T22:31:53.003Z,6.29
2022-11-20T22:34:21.442Z,6.33
2022-11-20T22:36:49.954Z,6.36
2022-11-20T22:39:18.789Z,6.36
2022-11-20T22:41:46.880Z,6.33
2022-11-20T22:44:16.944Z,6.32
2022-11-20T22:46:45.091Z,6.33
2022-11-20T22:49:12.986Z,6.31
2022-11-20T22:51:41.991Z,6.31
2022-11-20T22:54:13.089Z,6.31
2022-11-20T22:56:41.885Z,6.31
2022-11-20T22:59:10.127Z,6.33
2022-11-20T23:01:38.780Z,6.35
2022-11-20T23:04:10.244Z,6.38
2022-11-20T23:06:38.691Z,6.38
2022-11-20T23:09:07.983Z,6.39
2022-11-20T23:11:36.716Z,6.35
2022-11-20T23:14:07.506Z,6.29
2022-11-20T23:16:37.890Z,6.29
2022-11-20T23:19:09.168Z,6.31
2022-11-20T23:21:39.676Z,6.33
2022-11-20T23:24:08.880Z,6.35
2022-11-20T23:26:39.713Z,6.36
2022-11-20T23:29:09.349Z,6.35
2022-11-20T23:31:37.871Z,6.35
2022-11-20T23:34:05.966Z,6.35
2022-11-20T23:36:34.203Z,6.35
2022-11-20T23:39:05.903Z,6.35
2022-11-20T23:41:33.927Z,6.34
2022-11-20T23:44:01.941Z,6.35
2022-11-20T23:46:30.011Z,6.33
2022-11-20T23:48:58.097Z,6.34
2022-11-20T23:51:26.097Z,6.32
2022-11-20T23:53:54.129Z,6.31
2022-11-20T23:56:22.148Z,6.29
2022-11-20T23:58:50.675Z,6.25
